Observations for STORNOWAY, United Kingdom (EGPO)

EGPO 180520Z 24018G28KT 9999 FEW015 SCT033 BKN042 12/06 Q1004   
EGPO 180450Z 24019KT 9999 FEW015 SCT029 BKN042 11/06 Q1003  
EGPO 180420Z 24016KT 9999 FEW015 SCT029 BKN037 11/07 Q1003  
EGPO 180350Z AUTO 24017KT 9999 FEW013/// SCT030/// BKN036/// 10/08 Q1003
EGPO 180320Z AUTO 24015KT 9999 BKN037/// OVC046/// 11/06 Q1003  
EGPO 180250Z AUTO 24019KT 9999 BKN030/// BKN038/// OVC045/// 11/07 Q1003
EGPO 180220Z AUTO 24018KT 9999 FEW012/// SCT024/// BKN035/// 11/07 Q1003
EGPO 180150Z AUTO 25011KT 9999 BKN033/// BKN040/// 11/07 Q1003  
EGPO 180120Z AUTO 25012KT 9999 FEW027/// BKN032/// OVC042/// 11/07 Q1003
EGPO 180050Z AUTO 21009KT 9999 SCT028/// BKN033/// OVC041/// 11/08 Q1003
EGPO 180020Z AUTO 21009KT 9999 FEW019/// SCT027/// BKN031/// 11/09 Q1003
EGPO 172350Z AUTO 21009KT 9999 BKN022/// OVC041/// 11/09 Q1003  
EGPO 172320Z AUTO 23008KT 9999 SCT022/// OVC026/// 11/09 Q1003  
EGPO 172250Z AUTO 24011KT 9999 -RA BKN009/// OVC015/// 12/10 Q1003  
EGPO 172220Z AUTO 24008KT 9999 SCT010/// OVC018/// 12/10 Q1002  
EGPO 172150Z AUTO 24014KT 9999 -RA FEW007/// BKN012/// OVC027/// 12/11 Q1002
EGPO 172120Z AUTO 22009KT 9999 SCT010/// OVC015/// 12/11 Q1002  
EGPO 172050Z AUTO 21007KT 9999 OVC005/// 12/12 Q1002
EGPO 172020Z AUTO 23010KT 9999 OVC006/// 13/12 Q1001
EGPO 171950Z AUTO 21014KT 9999 BKN006/// OVC027/// 12/12 Q1001  
EGPO 171920Z AUTO 21013KT 9999 OVC004/// 12/12 Q1001
EGPO 171850Z AUTO 19018KT 9999 OVC004/// 11/11 Q1001
EGPO 171820Z AUTO 18014KT 9999 -RA OVC004/// 11/11 Q1002
EGPO 171750Z AUTO 18014KT 9999 -RA BKN005/// OVC011/// 11/10 Q1002  
EGPO 171720Z AUTO 19013KT 9999 FEW007/// BKN012/// BKN020/// 11/10 Q1002
EGPO 171650Z 18012KT 9999 -SHRA FEW015 BKN028 11/10 Q1003   
EGPO 171620Z 19012KT 9999 VCSH FEW015 SCT026 BKN040 12/09 Q1003 
EGPO 171550Z 20014KT 9999 VCSH FEW015 SCT026 BKN040 12/09 Q1003 
EGPO 171520Z 21018KT 9999 VCSH FEW015 SCT030 12/09 Q1004
EGPO 171450Z 20014KT 9999 FEW015 SCT030 13/09 Q1004 
EGPO 171420Z 20016KT 9999 FEW015 SCT030 14/10 Q1004 
EGPO 171350Z 18012KT 9999 FEW015 SCT030 13/10 Q1004 
EGPO 171320Z 19017KT 9999 FEW017 SCT030 14/11 Q1004 
EGPO 171250Z 19016KT 9999 FEW017 SCT030 14/11 Q1005 
EGPO 171220Z 19015KT 9999 FEW015 SCT032 14/11 Q1005 
EGPO 171150Z 20012KT 9999 SCT015 BKN028 BKN044 13/10 Q1005  
EGPO 171120Z 20014KT 9999 SCT015 BKN031 13/11 Q1005 
EGPO 171050Z 19012KT 9999 SCT012 BKN031 13/11 Q1005 
EGPO 171020Z 20012KT 9999 VCSH FEW012 SCT036 BKN044 12/11 Q1005 
EGPO 170950Z AUTO 18014KT 9999 SCT005/// BKN011/// OVC018/// 11/10 Q1005
EGPO 170920Z AUTO 19015KT 9999 SCT009/// BKN026/// OVC043/// 11/10 Q1005
EGPO 170850Z AUTO 18014KT 9999 BKN007/// OVC041/// 11/10 Q1005  
EGPO 170820Z AUTO 18014KT 9999 BKN007/// BKN021/// OVC041/// 10/10 Q1005
EGPO 170750Z AUTO 18007KT 9000 BKN005/// OVC011/// 10/10 Q1005  
EGPO 170720Z AUTO 18010KT 9999 BKN012/// OVC016/// 10/09 Q1005  
EGPO 170650Z AUTO 17010KT 9999 BKN019/// OVC043/// 10/09 Q1005  
EGPO 170620Z AUTO 17009KT 9999 BKN042/// 11/10 Q1005
EGPO 170550Z AUTO 18005KT 9999 NCD 10/09 Q1005  
EGPO 170520Z AUTO 19004KT 9999 NCD 10/09 Q1006  
EGPO 170450Z AUTO 22001KT 9999 NCD 07/07 Q1006